Time;durP1;ratioP1;P1;durP2;ratioP2;P2;SDS_P1;SDS_P2;PMS_P1;PMS_P2;Temp;Humidity;BMP_temperature;BMP_pressure;BME280_temperature;BME280_humidity;BME280_pressure;Samples;Min_cycle;Max_cycle;Signal;HPM_P1;HPM_P2
2021/05/14 00:01:08;;;;;;;11.07;9.07;;;13.80;99.90;;;;;;5010266;28;20783;-79
2021/05/14 00:03:34;;;;;;;12.43;8.23;;;13.80;99.90;;;;;;5017023;28;20423;-79
2021/05/14 00:06:00;;;;;;;10.97;8.40;;;13.80;99.90;;;;;;4999558;28;20943;-80
2021/05/14 00:08:26;;;;;;;11.23;8.60;;;13.70;99.90;;;;;;4999434;28;20470;-80
2021/05/14 00:10:54;;;;;;;10.07;8.27;;;13.70;99.90;;;;;;4998969;28;20516;-80
2021/05/14 00:13:20;;;;;;;9.63;8.63;;;13.80;99.90;;;;;;5016801;28;20428;-80
2021/05/14 00:15:49;;;;;;;11.00;8.60;;;13.80;99.90;;;;;;5016392;28;20431;-79
2021/05/14 00:18:15;;;;;;;10.80;9.63;;;13.80;99.90;;;;;;4983577;28;20443;-80
2021/05/14 00:20:46;;;;;;;10.87;9.20;;;13.80;99.90;;;;;;5008586;28;20801;-79
2021/05/14 00:23:13;;;;;;;9.53;8.60;;;13.80;99.90;;;;;;4999465;28;20490;-80
2021/05/14 00:25:42;;;;;;;8.27;7.47;;;13.80;99.90;;;;;;5016513;28;20485;-80
2021/05/14 00:28:08;;;;;;;9.40;8.10;;;13.80;99.90;;;;;;5015422;28;20513;-80
2021/05/14 00:30:38;;;;;;;9.27;8.27;;;13.90;99.90;;;;;;5016108;28;20487;-79
2021/05/14 00:33:04;;;;;;;7.93;7.13;;;13.90;99.90;;;;;;5016370;28;20479;-80
2021/05/14 00:35:32;;;;;;;10.17;8.20;;;13.90;99.90;;;;;;5016428;28;20513;-79
2021/05/14 00:38:00;;;;;;;8.57;7.67;;;13.80;99.90;;;;;;5016239;28;20460;-80
2021/05/14 00:40:26;;;;;;;10.03;8.10;;;13.80;99.90;;;;;;5016341;28;20455;-80
2021/05/14 00:42:55;;;;;;;9.00;8.10;;;13.80;99.90;;;;;;4998871;28;20486;-80
2021/05/14 00:45:23;;;;;;;9.80;8.80;;;13.80;99.90;;;;;;4998962;28;20472;-80
2021/05/14 00:48:00;;;;;;;9.03;8.00;;;13.70;99.90;;;;;;4999950;28;20461;-79
2021/05/14 00:50:28;;;;;;;8.90;8.00;;;13.70;99.90;;;;;;5015584;28;20440;-79
2021/05/14 00:52:56;;;;;;;9.50;8.57;;;13.70;99.90;;;;;;4998716;28;20426;-79
2021/05/14 00:55:22;;;;;;;9.77;8.77;;;13.60;99.90;;;;;;5015059;28;20423;-80
2021/05/14 00:57:48;;;;;;;10.27;9.27;;;13.50;99.90;;;;;;4998613;28;20441;-80
2021/05/14 01:00:17;;;;;;;11.53;10.03;;;13.40;99.90;;;;;;5015599;28;20887;-80
2021/05/14 01:02:43;;;;;;;10.23;8.93;;;13.40;99.90;;;;;;5015708;28;20485;-79
2021/05/14 01:05:11;;;;;;;9.53;8.53;;;13.40;99.90;;;;;;5014415;28;20425;-80
2021/05/14 01:07:42;;;;;;;9.00;8.10;;;13.30;99.90;;;;;;4999211;28;20408;-80
2021/05/14 01:10:08;;;;;;;11.27;9.70;;;13.20;99.90;;;;;;4998216;28;20467;-80
2021/05/14 01:12:37;;;;;;;19.07;9.83;;;13.20;99.90;;;;;;4998590;28;20199;-80
2021/05/14 01:15:04;;;;;;;10.10;9.03;;;13.10;99.90;;;;;;5015459;28;20769;-80
2021/05/14 01:17:31;;;;;;;11.40;9.77;;;13.10;99.90;;;;;;5015244;28;20430;-80
2021/05/14 01:20:00;;;;;;;11.30;10.10;;;13.00;99.90;;;;;;4999281;28;20937;-80
2021/05/14 01:22:28;;;;;;;11.53;10.30;;;13.00;99.90;;;;;;5014466;28;20463;-80
2021/05/14 01:24:56;;;;;;;10.70;9.50;;;12.90;99.90;;;;;;5015206;28;20426;-80
2021/05/14 01:27:22;;;;;;;9.17;8.00;;;12.80;99.90;;;;;;4998109;28;20429;-80
2021/05/14 01:29:49;;;;;;;11.27;10.10;;;12.80;99.90;;;;;;4998117;28;20971;-80
2021/05/14 01:32:17;;;;;;;10.80;9.37;;;12.80;99.90;;;;;;4997721;28;20465;-80
2021/05/14 01:34:46;;;;;;;11.50;9.60;;;12.70;99.90;;;;;;4999242;28;20490;-80
2021/05/14 01:37:12;;;;;;;10.00;8.60;;;12.70;99.90;;;;;;4998050;28;20749;-79
2021/05/14 01:39:42;;;;;;;9.47;8.47;;;12.60;99.90;;;;;;4997398;28;20448;-79
2021/05/14 01:42:11;;;;;;;11.53;8.67;;;12.60;99.90;;;;;;5015415;28;20438;-79
2021/05/14 01:44:39;;;;;;;11.03;9.00;;;12.60;99.90;;;;;;5014661;28;20458;-79
2021/05/14 01:47:05;;;;;;;11.23;8.90;;;12.60;99.90;;;;;;5015003;28;20444;-80
2021/05/14 01:49:31;;;;;;;9.70;8.70;;;12.60;99.90;;;;;;4997509;28;21026;-80
2021/05/14 01:51:57;;;;;;;10.00;8.93;;;12.50;99.90;;;;;;5014382;28;20442;-79
2021/05/14 01:54:23;;;;;;;12.83;8.83;;;12.50;99.90;;;;;;4997615;28;20503;-80
2021/05/14 01:56:50;;;;;;;13.47;8.77;;;12.50;99.90;;;;;;4997242;28;20431;-80
2021/05/14 01:59:16;;;;;;;10.23;9.17;;;12.50;99.90;;;;;;4997081;28;20421;-79
2021/05/14 02:01:43;;;;;;;10.37;9.27;;;12.50;99.90;;;;;;5015098;28;20473;-79
2021/05/14 02:04:09;;;;;;;10.30;9.13;;;12.40;99.90;;;;;;5014560;28;20450;-80
2021/05/14 02:06:40;;;;;;;11.83;9.50;;;12.40;99.90;;;;;;4981791;28;20521;-79
2021/05/14 02:09:08;;;;;;;11.47;9.47;;;12.40;99.90;;;;;;5014379;28;20472;-79
2021/05/14 02:11:38;;;;;;;11.07;9.03;;;12.30;99.90;;;;;;5002544;28;20433;-80
2021/05/14 02:14:05;;;;;;;9.10;8.10;;;12.30;99.90;;;;;;4992672;28;20452;-80
2021/05/14 02:16:31;;;;;;;12.13;9.40;;;12.20;99.90;;;;;;5013808;28;20429;-79
2021/05/14 02:18:57;;;;;;;11.20;9.43;;;12.20;99.90;;;;;;5014647;28;20214;-79
2021/05/14 02:21:22;;;;;;;12.27;9.67;;;12.20;99.90;;;;;;5013663;28;20436;-80
2021/05/14 02:23:51;;;;;;;10.60;8.87;;;12.10;99.90;;;;;;5014458;28;20902;-79
2021/05/14 02:26:16;;;;;;;10.17;9.20;;;12.20;99.90;;;;;;4996988;28;20518;-80
2021/05/14 02:28:45;;;;;;;10.53;9.20;;;12.10;99.90;;;;;;4996676;28;20636;-80
2021/05/14 02:31:13;;;;;;;9.93;8.83;;;12.10;99.90;;;;;;4997022;28;20519;-80
2021/05/14 02:33:41;;;;;;;10.27;8.70;;;12.10;99.90;;;;;;4996792;28;20537;-90
2021/05/14 02:36:08;;;;;;;11.20;9.40;;;12.00;99.90;;;;;;5015810;28;20428;-91
2021/05/14 02:38:37;;;;;;;10.83;9.73;;;12.00;99.90;;;;;;5015681;28;20537;-90
2021/05/14 02:41:09;;;;;;;10.63;9.27;;;12.00;99.90;;;;;;4998696;28;20474;-90
2021/05/14 02:43:36;;;;;;;9.70;8.40;;;12.00;99.90;;;;;;5015104;28;20430;-91
2021/05/14 02:46:02;;;;;;;10.57;8.30;;;11.90;99.90;;;;;;5015013;28;20431;-90
2021/05/14 02:48:30;;;;;;;10.50;8.47;;;11.90;99.90;;;;;;4998520;28;20492;-90
2021/05/14 02:50:58;;;;;;;11.37;8.80;;;11.90;99.90;;;;;;5015269;28;20755;-90
2021/05/14 02:53:29;;;;;;;13.67;9.27;;;11.90;99.90;;;;;;5015344;28;20429;-91
2021/05/14 02:55:58;;;;;;;9.83;8.83;;;11.80;99.90;;;;;;5015577;28;20416;-90
2021/05/14 02:58:24;;;;;;;10.40;9.03;;;11.90;99.90;;;;;;5015480;28;20429;-91
2021/05/14 03:00:50;;;;;;;13.23;10.93;;;11.80;99.90;;;;;;4999195;28;20816;-91
2021/05/14 03:03:16;;;;;;;10.40;8.80;;;11.80;99.90;;;;;;5015394;28;20514;-92
2021/05/14 03:05:42;;;;;;;10.70;9.60;;;11.80;99.90;;;;;;4998596;28;20425;-91
2021/05/14 03:08:07;;;;;;;9.90;8.90;;;11.80;99.90;;;;;;5015497;28;20432;-90
2021/05/14 03:10:37;;;;;;;11.07;9.30;;;11.80;99.90;;;;;;4999312;28;20447;-90
2021/05/14 03:13:05;;;;;;;10.20;8.67;;;11.80;99.90;;;;;;4998313;28;20424;-90
2021/05/14 03:15:31;;;;;;;9.60;8.70;;;11.80;99.90;;;;;;5015249;28;20514;-90
2021/05/14 03:17:57;;;;;;;9.50;8.53;;;11.70;99.90;;;;;;4998424;28;20543;-90
2021/05/14 03:20:23;;;;;;;10.57;8.50;;;11.70;99.90;;;;;;5009905;28;20469;-91
2021/05/14 03:22:49;;;;;;;10.40;8.23;;;11.70;99.90;;;;;;4979203;28;20667;-90
2021/05/14 03:25:17;;;;;;;11.80;9.37;;;11.70;99.90;;;;;;4980641;28;20418;-90
2021/05/14 03:27:45;;;;;;;11.57;9.63;;;11.70;99.90;;;;;;5015595;28;20422;-91
2021/05/14 03:30:11;;;;;;;10.40;9.20;;;11.60;99.90;;;;;;4997849;28;20889;-88
2021/05/14 03:32:37;;;;;;;10.97;9.23;;;11.70;99.90;;;;;;5015215;28;20425;-90
2021/05/14 03:35:07;;;;;;;12.30;9.97;;;11.60;99.90;;;;;;5015142;28;20418;-90
2021/05/14 03:37:35;;;;;;;9.70;8.27;;;11.60;99.90;;;;;;5015213;28;20435;-91
2021/05/14 03:40:14;;;;;;;11.70;9.40;;;11.60;99.90;;;;;;4998145;28;20436;-90
2021/05/14 03:42:45;;;;;;;10.00;8.60;;;11.60;99.90;;;;;;4998417;28;20435;-91
2021/05/14 03:45:12;;;;;;;10.33;9.17;;;11.60;99.90;;;;;;4998088;28;20471;-91
2021/05/14 03:47:41;;;;;;;11.10;8.50;;;11.60;99.90;;;;;;5018765;28;20423;-91
2021/05/14 03:50:10;;;;;;;9.87;8.87;;;11.60;99.90;;;;;;5018616;28;20456;-90
2021/05/14 03:52:36;;;;;;;9.73;8.30;;;11.50;99.90;;;;;;5018674;28;20954;-91
2021/05/14 03:55:03;;;;;;;11.53;9.67;;;11.50;99.90;;;;;;5018582;28;20420;-90
2021/05/14 03:57:29;;;;;;;9.70;8.30;;;11.50;99.90;;;;;;4999112;28;20811;-91
2021/05/14 03:59:55;;;;;;;11.47;9.57;;;11.40;99.90;;;;;;5005367;28;20520;-90
2021/05/14 04:02:23;;;;;;;9.83;8.83;;;11.50;99.90;;;;;;5018430;28;20449;-91
2021/05/14 04:04:49;;;;;;;10.97;9.43;;;11.50;99.90;;;;;;5019200;28;20427;-92
2021/05/14 04:07:19;;;;;;;10.17;8.03;;;11.50;99.90;;;;;;5001629;28;20521;-91
2021/05/14 04:09:52;;;;;;;10.37;8.43;;;11.50;99.90;;;;;;5017920;28;20468;-92
2021/05/14 04:15:07;;;;;;;8.70;7.80;;;11.50;99.90;;;;;;5018499;28;20425;-91
2021/05/14 04:17:35;;;;;;;9.77;8.77;;;11.60;99.90;;;;;;4984534;28;20579;-92
2021/05/14 04:20:01;;;;;;;9.60;8.00;;;11.60;99.90;;;;;;5018194;28;20745;-91
2021/05/14 04:22:29;;;;;;;9.70;8.67;;;11.60;99.90;;;;;;4996479;28;20437;-92
2021/05/14 04:24:55;;;;;;;9.77;8.57;;;11.70;99.90;;;;;;4981508;28;20439;-92
2021/05/14 04:27:22;;;;;;;10.57;8.40;;;11.60;99.90;;;;;;4997702;28;20435;-92
2021/05/14 04:30:03;;;;;;;9.80;8.80;;;11.70;99.90;;;;;;5012602;28;20460;-94
2021/05/14 04:32:29;;;;;;;11.00;8.83;;;11.70;99.90;;;;;;5000899;28;20516;-92
2021/05/14 04:34:55;;;;;;;9.83;8.53;;;11.70;99.90;;;;;;5017754;28;20899;-92
2021/05/14 04:37:21;;;;;;;11.70;9.23;;;11.70;99.90;;;;;;5017491;28;20424;-91
2021/05/14 04:39:47;;;;;;;10.60;8.20;;;11.70;99.90;;;;;;5000232;28;20729;-91
2021/05/14 04:42:13;;;;;;;10.50;9.40;;;11.70;99.90;;;;;;5000529;28;20487;-91
2021/05/14 04:44:41;;;;;;;13.27;9.80;;;11.80;99.90;;;;;;5017515;28;20429;-92
2021/05/14 04:47:09;;;;;;;11.07;9.47;;;11.80;99.90;;;;;;5017475;28;20764;-91
2021/05/14 04:49:38;;;;;;;9.03;7.80;;;11.80;99.90;;;;;;5013385;28;20790;-92
2021/05/14 04:52:17;;;;;;;11.10;9.70;;;11.90;99.90;;;;;;5000885;28;20419;-93
2021/05/14 04:54:49;;;;;;;11.10;10.00;;;11.90;99.90;;;;;;5017654;28;20951;-91
2021/05/14 04:57:15;;;;;;;9.47;8.57;;;11.90;99.90;;;;;;5016280;28;20409;-91
2021/05/14 04:59:43;;;;;;;10.47;8.80;;;11.90;99.90;;;;;;5000583;28;20454;-92
2021/05/14 05:02:09;;;;;;;11.23;9.30;;;12.00;99.90;;;;;;5017277;28;20423;-91
2021/05/14 05:04:39;;;;;;;12.50;10.67;;;12.00;99.90;;;;;;5017002;28;20929;-91
2021/05/14 05:07:08;;;;;;;11.70;10.27;;;12.10;99.90;;;;;;5016800;28;20470;-90
2021/05/14 05:09:35;;;;;;;11.43;9.57;;;12.10;99.90;;;;;;5017075;28;20610;-92
2021/05/14 05:12:06;;;;;;;11.83;10.27;;;12.10;99.90;;;;;;5016342;28;20421;-91
2021/05/14 05:14:34;;;;;;;11.10;9.67;;;12.20;99.90;;;;;;5017186;28;20439;-90
2021/05/14 05:17:00;;;;;;;9.40;8.33;;;12.20;99.90;;;;;;5000142;28;20441;-91
2021/05/14 05:19:29;;;;;;;10.53;9.10;;;12.30;99.90;;;;;;5017187;28;20434;-90
2021/05/14 05:21:57;;;;;;;11.00;9.00;;;12.30;99.90;;;;;;4999821;28;20733;-92
2021/05/14 05:24:22;;;;;;;10.17;8.53;;;12.40;99.90;;;;;;4998107;28;20445;-92
2021/05/14 05:27:09;;;;;;;10.83;9.70;;;12.40;99.90;;;;;;4991059;28;20467;-91
2021/05/14 05:29:38;;;;;;;10.57;8.73;;;12.50;99.90;;;;;;4996814;28;20458;-92
2021/05/14 05:32:07;;;;;;;10.03;9.03;;;12.60;99.90;;;;;;4997256;28;20469;-93
2021/05/14 05:35:20;;;;;;;9.10;8.20;;;12.60;99.90;;;;;;4991143;28;20444;-92
2021/05/14 05:37:54;;;;;;;11.00;9.03;;;12.60;99.90;;;;;;5000685;28;20781;-93
2021/05/14 05:40:20;;;;;;;11.07;9.40;;;12.70;99.90;;;;;;4998249;28;20427;-93
2021/05/14 05:42:47;;;;;;;13.10;9.03;;;12.70;99.90;;;;;;4982289;28;20525;-93
2021/05/14 05:45:15;;;;;;;10.27;9.27;;;12.70;99.90;;;;;;4987154;28;20439;-89
2021/05/14 05:47:48;;;;;;;12.27;9.40;;;12.80;99.90;;;;;;4994463;28;20463;-94
2021/05/14 05:50:16;;;;;;;9.23;8.23;;;12.80;99.90;;;;;;5003325;28;20528;-92
2021/05/14 05:52:41;;;;;;;10.87;9.10;;;12.80;99.90;;;;;;4980835;28;20476;-93
2021/05/14 05:55:10;;;;;;;9.33;8.17;;;12.80;99.90;;;;;;4964198;28;20482;-93
2021/05/14 05:57:38;;;;;;;10.07;8.60;;;12.90;99.90;;;;;;5004334;28;20860;-94
2021/05/14 06:00:07;;;;;;;9.53;8.53;;;13.00;99.90;;;;;;5007168;28;20452;-93
2021/05/14 06:02:37;;;;;;;14.13;8.30;;;13.00;99.90;;;;;;4991044;28;20437;-94
2021/05/14 06:05:04;;;;;;;11.87;8.60;;;13.10;99.90;;;;;;4990529;28;20435;-93
2021/05/14 06:07:32;;;;;;;11.27;8.80;;;13.10;99.90;;;;;;5010261;28;20511;-94
2021/05/14 06:09:58;;;;;;;11.73;8.60;;;13.20;99.90;;;;;;4998303;28;20465;-93
2021/05/14 06:12:27;;;;;;;9.57;8.57;;;13.20;99.90;;;;;;5015103;28;20773;-94
2021/05/14 06:14:52;;;;;;;9.80;8.80;;;13.20;99.90;;;;;;5015647;28;20424;-92
2021/05/14 06:17:18;;;;;;;9.33;8.43;;;13.20;99.90;;;;;;5005496;28;20442;-94
2021/05/14 06:20:14;;;;;;;11.17;8.73;;;13.30;99.90;;;;;;4988488;28;20456;-94
2021/05/14 06:22:43;;;;;;;11.60;8.37;;;13.30;99.90;;;;;;5015018;28;20446;-95
2021/05/14 06:25:12;;;;;;;10.17;9.07;;;13.40;99.90;;;;;;4989824;28;20756;-95
2021/05/14 06:27:37;;;;;;;11.10;9.33;;;13.50;99.90;;;;;;4977336;28;20435;-95
2021/05/14 06:30:05;;;;;;;10.83;9.30;;;13.40;99.90;;;;;;4990455;28;20478;-94
2021/05/14 06:32:31;;;;;;;11.10;10.00;;;13.40;99.90;;;;;;4989527;28;20452;-93
2021/05/14 06:34:57;;;;;;;10.10;9.10;;;13.50;99.90;;;;;;5011695;28;20501;-94
2021/05/14 06:37:30;;;;;;;9.90;8.60;;;13.40;99.90;;;;;;4980615;28;20425;-95
2021/05/14 06:39:57;;;;;;;12.23;8.90;;;13.50;99.90;;;;;;5006201;28;20900;-92
2021/05/14 06:42:23;;;;;;;12.60;9.00;;;13.50;99.90;;;;;;4974600;28;20460;-95
2021/05/14 06:44:49;;;;;;;9.40;8.20;;;13.50;99.90;;;;;;5009883;28;20430;-95
2021/05/14 06:47:15;;;;;;;10.87;9.03;;;13.70;99.90;;;;;;4963551;28;20517;-94
2021/05/14 06:49:43;;;;;;;9.83;8.80;;;13.70;99.90;;;;;;5004222;28;20529;-94
2021/05/14 06:52:17;;;;;;;10.30;9.30;;;13.70;99.90;;;;;;4995712;28;20517;-94
2021/05/14 06:54:43;;;;;;;9.97;8.97;;;13.80;99.90;;;;;;4987590;28;20438;-94
2021/05/14 06:57:09;;;;;;;8.90;8.10;;;13.90;99.90;;;;;;4986932;28;20437;-91
2021/05/14 06:59:36;;;;;;;10.30;9.40;;;13.90;99.90;;;;;;5011652;28;20445;-95
2021/05/14 07:02:06;;;;;;;13.60;9.93;;;14.00;99.90;;;;;;5001864;28;20434;-95
2021/05/14 07:05:31;;;;;;;9.60;8.63;;;14.00;99.90;;;;;;4994608;28;20435;-95
2021/05/14 07:08:24;;;;;;;9.70;8.80;;;14.00;99.90;;;;;;5004283;28;20440;-94
2021/05/14 07:11:21;;;;;;;10.43;9.43;;;14.00;99.90;;;;;;4986081;28;20457;-94
2021/05/14 07:13:48;;;;;;;15.07;8.40;;;14.00;99.90;;;;;;5014505;28;20450;-94
2021/05/14 07:16:16;;;;;;;12.30;10.57;;;14.00;99.90;;;;;;4983109;28;20481;-94
2021/05/14 07:18:44;;;;;;;10.53;9.53;;;14.10;99.90;;;;;;4978937;28;20456;-94
2021/05/14 07:21:22;;;;;;;14.00;9.73;;;14.20;99.90;;;;;;5012203;28;20462;-93
2021/05/14 07:23:48;;;;;;;10.63;9.50;;;14.30;99.90;;;;;;4999917;28;20453;-93
2021/05/14 07:26:19;;;;;;;11.13;9.20;;;14.30;99.90;;;;;;4999371;28;20429;-93
2021/05/14 07:28:47;;;;;;;11.50;9.37;;;14.40;99.90;;;;;;5010900;28;20496;-93
2021/05/14 07:31:13;;;;;;;12.40;9.90;;;14.30;99.90;;;;;;5014552;28;20554;-93
2021/05/14 07:33:44;;;;;;;11.23;10.00;;;14.40;99.90;;;;;;4985699;28;20492;-92
2021/05/14 07:36:10;;;;;;;10.17;9.27;;;14.30;99.90;;;;;;4985877;28;20498;-92
2021/05/14 07:38:36;;;;;;;11.10;10.00;;;14.40;99.90;;;;;;5001881;28;20445;-92
2021/05/14 07:41:02;;;;;;;12.37;9.27;;;14.50;99.90;;;;;;5001856;28;20424;-90
2021/05/14 07:43:30;;;;;;;10.23;9.17;;;14.60;99.90;;;;;;5000782;28;20440;-88
2021/05/14 07:46:17;;;;;;;10.17;8.63;;;14.60;99.90;;;;;;5014116;28;20463;-88
2021/05/14 07:48:43;;;;;;;12.57;9.80;;;14.70;99.90;;;;;;4989168;28;21083;-88
2021/05/14 07:51:12;;;;;;;10.07;9.03;;;14.70;99.90;;;;;;5013322;28;20490;-88
2021/05/14 07:53:38;;;;;;;10.33;8.87;;;14.80;99.90;;;;;;4998420;28;20453;-87
2021/05/14 07:56:04;;;;;;;10.40;9.50;;;14.70;99.90;;;;;;4989230;28;20443;-87
2021/05/14 07:58:30;;;;;;;10.57;9.47;;;14.70;99.90;;;;;;5012877;28;20434;-89
2021/05/14 08:01:00;;;;;;;11.37;10.03;;;14.80;99.90;;;;;;4970345;28;20448;-88
2021/05/14 08:03:50;;;;;;;9.13;8.23;;;14.80;99.90;;;;;;4954323;29;20508;-89
2021/05/14 08:06:18;;;;;;;12.23;9.63;;;14.80;99.90;;;;;;4948223;29;20781;-88
2021/05/14 08:08:44;;;;;;;10.13;9.23;;;14.80;99.90;;;;;;4946353;29;21004;-87
2021/05/14 08:11:11;;;;;;;10.13;9.23;;;14.90;99.90;;;;;;4931009;29;20451;-89
2021/05/14 08:13:37;;;;;;;10.87;9.87;;;14.90;99.90;;;;;;4952372;29;20462;-88
2021/05/14 08:16:06;;;;;;;9.37;8.47;;;15.00;99.90;;;;;;4936899;29;20834;-87
2021/05/14 08:18:37;;;;;;;10.10;9.20;;;15.10;99.90;;;;;;4946592;28;20442;-88
2021/05/14 08:21:03;;;;;;;9.17;8.37;;;15.20;99.90;;;;;;4921439;29;20451;-88
2021/05/14 08:23:31;;;;;;;9.50;8.70;;;15.40;99.90;;;;;;4937223;29;20444;-88
2021/05/14 08:25:59;;;;;;;9.40;8.50;;;15.50;99.90;;;;;;4937675;28;20534;-88
2021/05/14 08:28:25;;;;;;;12.47;8.80;;;15.40;99.90;;;;;;4936687;29;20470;-88
2021/05/14 08:30:51;;;;;;;9.17;8.27;;;15.40;99.90;;;;;;4952610;29;21000;-86
2021/05/14 08:33:17;;;;;;;8.90;8.00;;;15.50;99.90;;;;;;4950279;28;20563;-87
2021/05/14 08:35:45;;;;;;;9.03;8.23;;;15.60;99.90;;;;;;4949529;29;20874;-88
2021/05/14 08:38:16;;;;;;;13.87;9.53;;;15.70;99.90;;;;;;4939480;29;20573;-86
2021/05/14 08:40:42;;;;;;;12.33;9.60;;;15.80;99.90;;;;;;4977142;28;20538;-86
2021/05/14 08:43:08;;;;;;;8.80;7.37;;;15.80;99.90;;;;;;4998846;28;20804;-88
2021/05/14 08:45:38;;;;;;;9.77;8.67;;;15.80;99.90;;;;;;4998974;28;20428;-85
2021/05/14 08:48:11;;;;;;;10.63;9.67;;;15.70;99.90;;;;;;5015401;28;20469;-87
2021/05/14 08:50:38;;;;;;;10.03;9.00;;;15.90;99.90;;;;;;4998381;28;20923;-88
2021/05/14 08:53:07;;;;;;;9.77;8.77;;;15.90;99.90;;;;;;4997221;28;20449;-87
2021/05/14 08:55:33;;;;;;;10.10;9.10;;;15.90;99.90;;;;;;4992294;28;20436;-84
2021/05/14 08:58:01;;;;;;;9.77;8.87;;;16.00;99.90;;;;;;5015904;28;20780;-90
2021/05/14 09:00:29;;;;;;;9.13;8.23;;;16.10;99.90;;;;;;4998824;28;20455;-84
2021/05/14 09:02:56;;;;;;;8.93;8.13;;;16.20;99.90;;;;;;4998653;28;20521;-88
2021/05/14 09:05:33;;;;;;;8.80;8.07;;;16.40;99.90;;;;;;5013027;28;20452;-88
2021/05/14 09:08:03;;;;;;;8.47;7.77;;;16.60;99.90;;;;;;4998512;28;20973;-87
2021/05/14 09:10:37;;;;;;;8.80;8.10;;;16.90;99.90;;;;;;5015416;28;20472;-87
2021/05/14 09:13:11;;;;;;;9.20;8.30;;;17.20;99.90;;;;;;5015489;28;20504;-83
2021/05/14 09:15:40;;;;;;;9.17;8.27;;;17.20;99.90;;;;;;4998114;28;20425;-86
2021/05/14 09:18:16;;;;;;;8.93;8.10;;;17.20;98.90;;;;;;5014758;28;20436;-86
2021/05/14 09:20:51;;;;;;;8.90;8.03;;;17.10;99.60;;;;;;4998594;28;20552;-86
2021/05/14 09:23:21;;;;;;;7.63;6.63;;;17.20;99.90;;;;;;4966061;28;20431;-86
2021/05/14 09:25:52;;;;;;;7.90;7.10;;;17.40;99.20;;;;;;4998407;28;20457;-85
2021/05/14 09:28:41;;;;;;;7.67;7.03;;;17.60;98.40;;;;;;4997954;28;20509;-82
2021/05/14 09:31:17;;;;;;;8.60;7.90;;;17.70;94.50;;;;;;5014627;28;20481;-83
2021/05/14 09:33:45;;;;;;;7.37;6.70;;;17.80;94.70;;;;;;5013838;28;20446;-83
2021/05/14 09:36:25;;;;;;;7.70;7.10;;;18.10;96.00;;;;;;4997543;28;20519;-83
2021/05/14 09:39:01;;;;;;;8.37;7.67;;;18.30;94.60;;;;;;5014241;28;21019;-82
2021/05/14 09:41:46;;;;;;;6.00;5.40;;;18.60;93.20;;;;;;5014737;28;20748;-84
2021/05/14 09:44:14;;;;;;;7.60;6.90;;;18.70;92.70;;;;;;4980862;28;20430;-85
2021/05/14 09:46:46;;;;;;;8.63;7.83;;;18.90;92.90;;;;;;4995578;28;20445;-88
2021/05/14 09:49:17;;;;;;;7.77;7.20;;;18.80;93.10;;;;;;4987707;28;20539;-89
2021/05/14 09:51:56;;;;;;;7.40;6.80;;;18.70;92.60;;;;;;4995546;28;20431;-90
2021/05/14 09:54:34;;;;;;;6.00;5.40;;;18.60;94.00;;;;;;4998002;28;20457;-88
2021/05/14 10:00:03;;;;;;;6.27;5.77;;;18.60;92.70;;;;;;4995410;28;20970;-89
2021/05/14 10:02:36;;;;;;;6.20;5.70;;;18.70;83.30;;;;;;4998747;28;20458;-91
2021/05/14 10:05:07;;;;;;;6.10;4.90;;;18.60;82.50;;;;;;4998439;28;20756;-91
2021/05/14 10:07:36;;;;;;;6.30;5.80;;;18.70;84.60;;;;;;4998855;28;20430;-92
2021/05/14 10:10:07;;;;;;;7.37;6.77;;;18.70;82.00;;;;;;5015798;28;20485;-93
2021/05/14 10:12:35;;;;;;;6.90;6.20;;;18.80;85.10;;;;;;5016153;28;20945;-90
2021/05/14 10:15:03;;;;;;;6.50;6.00;;;19.10;90.60;;;;;;5015949;28;20435;-91
2021/05/14 10:17:29;;;;;;;6.57;5.97;;;19.30;87.90;;;;;;4998700;28;20458;-92
2021/05/14 10:20:00;;;;;;;6.57;6.07;;;19.50;87.00;;;;;;4998295;28;20419;-92
2021/05/14 10:22:33;;;;;;;7.13;6.50;;;19.70;85.80;;;;;;5015508;28;20926;-92
2021/05/14 10:25:00;;;;;;;6.27;5.87;;;19.90;86.60;;;;;;5015476;28;20743;-89
2021/05/14 10:27:37;;;;;;;6.40;5.80;;;20.20;84.60;;;;;;5014613;28;20470;-90
2021/05/14 10:30:33;;;;;;;6.70;6.30;;;20.60;79.50;;;;;;4997681;28;20474;-93
2021/05/14 10:33:03;;;;;;;10.60;7.90;;;20.70;67.00;;;;;;4979052;28;20545;-91
2021/05/14 10:35:31;;;;;;;6.40;5.80;;;20.40;70.20;;;;;;4990230;28;20780;-88
2021/05/14 10:37:57;;;;;;;5.70;5.23;;;20.30;72.10;;;;;;4958754;28;20463;-88
2021/05/14 10:40:29;;;;;;;5.60;5.20;;;20.00;74.00;;;;;;4993317;28;20433;-89
2021/05/14 10:43:05;;;;;;;8.33;7.20;;;19.80;72.00;;;;;;4980286;28;20267;-89
2021/05/14 10:45:43;;;;;;;6.80;6.30;;;19.60;76.20;;;;;;4993449;28;20965;-91
2021/05/14 10:48:19;;;;;;;5.53;5.20;;;19.60;78.90;;;;;;4994157;28;20592;-89
2021/05/14 10:50:58;;;;;;;5.50;5.10;;;19.70;76.10;;;;;;4964542;28;20596;-92
2021/05/14 10:53:48;;;;;;;5.63;5.20;;;20.10;76.10;;;;;;4962595;28;20500;-91
2021/05/14 10:56:16;;;;;;;5.80;5.40;;;20.60;72.60;;;;;;4994375;28;20426;-91
2021/05/14 10:58:44;;;;;;;6.70;5.93;;;21.10;75.60;;;;;;4994639;28;21041;-91
2021/05/14 11:01:42;;;;;;;6.87;6.37;;;21.40;71.80;;;;;;4993109;28;20902;-90
2021/05/14 11:04:11;;;;;;;5.50;5.20;;;21.70;64.50;;;;;;4960846;28;20940;-92
2021/05/14 11:06:45;;;;;;;5.43;4.77;;;21.70;64.50;;;;;;4993456;28;20852;-89
2021/05/14 11:09:12;;;;;;;6.20;5.80;;;21.70;69.50;;;;;;4976993;28;20469;-90
2021/05/14 11:12:05;;;;;;;5.13;4.83;;;21.40;59.90;;;;;;4993109;28;20521;-91
2021/05/14 11:14:48;;;;;;;6.80;6.40;;;21.10;63.40;;;;;;4994532;28;20434;-92
2021/05/14 11:17:18;;;;;;;6.70;6.10;;;20.90;66.20;;;;;;4995102;28;20433;-91
2021/05/14 11:19:48;;;;;;;6.43;5.87;;;20.60;66.50;;;;;;4974342;28;20828;-91
2021/05/14 11:22:27;;;;;;;6.87;6.20;;;20.40;65.70;;;;;;4974904;28;20430;-89
2021/05/14 11:25:01;;;;;;;5.90;5.40;;;20.00;65.80;;;;;;4975420;28;20422;-91
2021/05/14 11:27:35;;;;;;;6.20;5.60;;;19.80;68.40;;;;;;4977380;28;20603;-92
2021/05/14 11:30:07;;;;;;;5.73;5.43;;;19.80;64.60;;;;;;4978211;28;20564;-91
2021/05/14 11:32:37;;;;;;;6.23;5.83;;;20.10;64.80;;;;;;4978311;28;20480;-91
2021/05/14 11:35:05;;;;;;;5.70;5.20;;;20.10;63.80;;;;;;4994913;28;20482;-90
2021/05/14 11:37:37;;;;;;;6.97;4.30;;;20.10;64.00;;;;;;4979487;28;20419;-92
2021/05/14 11:40:22;;;;;;;5.63;5.10;;;20.00;62.90;;;;;;4979366;28;20451;-92
2021/05/14 11:42:54;;;;;;;6.00;5.50;;;19.80;64.60;;;;;;4995409;28;20815;-92
2021/05/14 11:45:24;;;;;;;6.17;5.67;;;19.60;64.10;;;;;;4962515;28;20432;-92
2021/05/14 11:47:57;;;;;;;6.07;4.47;;;19.50;65.30;;;;;;4962865;28;20507;-90
2021/05/14 11:50:27;;;;;;;4.50;4.20;;;19.60;68.00;;;;;;4994487;28;20467;-91
2021/05/14 11:52:54;;;;;;;5.27;4.90;;;19.50;66.50;;;;;;4959434;28;20516;-92
2021/05/14 11:55:21;;;;;;;5.40;5.10;;;19.50;65.80;;;;;;4943401;28;20429;-93
2021/05/14 11:57:52;;;;;;;5.50;5.03;;;19.60;65.20;;;;;;4976048;28;20429;-91
2021/05/14 12:00:29;;;;;;;6.57;6.07;;;19.60;65.10;;;;;;4975260;28;20771;-90
2021/05/14 12:03:00;;;;;;;5.80;5.40;;;19.70;69.00;;;;;;4943718;28;20779;-91
2021/05/14 12:05:29;;;;;;;6.23;5.83;;;20.10;67.60;;;;;;4985649;28;20437;-92
2021/05/14 12:08:15;;;;;;;5.50;5.00;;;20.50;61.90;;;;;;4981137;28;20519;-92
2021/05/14 12:11:09;;;;;;;6.60;6.20;;;20.90;65.90;;;;;;4962119;28;20528;-92
2021/05/14 12:13:42;;;;;;;6.93;6.40;;;21.60;69.60;;;;;;4962762;28;20462;-92
2021/05/14 12:16:14;;;;;;;6.80;5.80;;;21.80;59.40;;;;;;4963157;28;20435;-92
2021/05/14 12:18:53;;;;;;;6.20;5.80;;;22.00;63.10;;;;;;4965934;28;20453;-92
2021/05/14 12:21:29;;;;;;;7.57;6.97;;;22.10;59.80;;;;;;4997648;28;20419;-92
2021/05/14 12:24:00;;;;;;;7.10;6.60;;;21.80;56.90;;;;;;4962440;28;20956;-92
2021/05/14 12:26:30;;;;;;;7.43;6.10;;;21.80;60.20;;;;;;4952467;28;20446;-92
2021/05/14 12:29:02;;;;;;;6.10;5.80;;;21.60;57.50;;;;;;4981805;28;20473;-91
2021/05/14 12:31:28;;;;;;;6.00;5.50;;;21.40;56.90;;;;;;5007812;28;20523;-91
2021/05/14 12:34:01;;;;;;;5.83;5.17;;;21.10;57.40;;;;;;4984081;28;20433;-91
2021/05/14 12:36:34;;;;;;;5.37;4.97;;;21.00;57.90;;;;;;4984360;28;20416;-92
2021/05/14 12:39:06;;;;;;;6.20;5.40;;;21.30;59.10;;;;;;5017169;28;20507;-90
2021/05/14 12:41:41;;;;;;;6.30;5.70;;;21.30;56.20;;;;;;4999979;28;20545;-91
2021/05/14 12:44:09;;;;;;;5.03;4.63;;;21.20;56.50;;;;;;5000212;28;20434;-90
2021/05/14 12:46:36;;;;;;;7.20;6.60;;;21.10;58.60;;;;;;5000265;28;20463;-90
2021/05/14 12:49:10;;;;;;;6.33;5.93;;;20.80;56.90;;;;;;4964071;28;20862;-90
2021/05/14 12:51:41;;;;;;;5.37;4.97;;;20.80;59.70;;;;;;4964994;28;20810;-90
2021/05/14 12:54:21;;;;;;;5.50;5.10;;;21.10;58.60;;;;;;4967920;28;20434;-89
2021/05/14 12:56:47;;;;;;;6.33;5.83;;;21.60;55.60;;;;;;4967754;28;20468;-91
2021/05/14 12:59:17;;;;;;;5.87;5.50;;;22.00;56.20;;;;;;4982680;28;20470;-89
2021/05/14 13:01:53;;;;;;;6.10;5.70;;;22.40;55.80;;;;;;4954301;28;20834;-90